Time;durP1;ratioP1;P1;durP2;ratioP2;P2;SDS_P1;SDS_P2;PMS_P1;PMS_P2;Temp;Humidity;BMP_temperature;BMP_pressure;BME280_temperature;BME280_humidity;BME280_pressure;Samples;Min_cycle;Max_cycle;Signal;HPM_P1;HPM_P2
2021/08/31 00:00:09;;;;;;;6.10;3.65;;;;;;;20.68;62.36;102254.84;5033675;28;20026;-63
2021/08/31 00:02:34;;;;;;;5.38;3.55;;;;;;;20.67;62.53;102257.63;5033049;28;20022;-63
2021/08/31 00:05:00;;;;;;;6.37;4.10;;;;;;;20.66;62.58;102259.38;5033415;28;20043;-63
2021/08/31 00:07:25;;;;;;;5.67;3.63;;;;;;;20.67;62.34;102265.56;5033644;28;20291;-63
2021/08/31 00:09:50;;;;;;;5.70;3.57;;;;;;;20.63;62.42;102264.88;5032632;28;20285;-63
2021/08/31 00:12:16;;;;;;;6.55;3.90;;;;;;;20.65;62.17;102268.31;5033589;28;20274;-63
2021/08/31 00:14:41;;;;;;;5.63;3.67;;;;;;;20.64;62.42;102271.91;5033629;28;20026;-63
2021/08/31 00:17:07;;;;;;;5.78;3.55;;;;;;;20.65;62.27;102277.09;5032573;28;20021;-63
2021/08/31 00:19:33;;;;;;;5.68;3.63;;;;;;;20.63;62.25;102271.03;5033393;28;20030;-62
2021/08/31 00:21:59;;;;;;;6.07;3.70;;;;;;;20.63;62.60;102278.13;5033507;28;20041;-64
2021/08/31 00:24:25;;;;;;;5.43;3.67;;;;;;;20.62;62.40;102273.78;5032904;28;20088;-63
2021/08/31 00:26:50;;;;;;;6.28;3.70;;;;;;;20.63;62.60;102278.13;5033077;28;20025;-63
2021/08/31 00:29:15;;;;;;;6.82;3.63;;;;;;;20.62;62.30;102279.94;5033378;28;20469;-62
2021/08/31 00:31:41;;;;;;;6.93;4.15;;;;;;;20.61;62.40;102275.56;5032669;28;20024;-62
2021/08/31 00:34:06;;;;;;;5.77;4.23;;;;;;;20.62;62.50;102281.75;5032928;28;20040;-63
2021/08/31 00:36:31;;;;;;;7.22;4.03;;;;;;;20.61;62.31;102278.22;5033240;28;20055;-62
2021/08/31 00:38:57;;;;;;;5.55;3.58;;;;;;;20.59;62.42;102277.50;5032285;28;20025;-63
2021/08/31 00:41:24;;;;;;;5.68;3.85;;;;;;;20.61;62.52;102285.31;5033256;28;20040;-62
2021/08/31 00:43:50;;;;;;;6.90;4.00;;;;;;;20.61;62.20;102286.16;5032783;28;20025;-63
2021/08/31 00:46:17;;;;;;;6.35;3.75;;;;;;;20.60;62.54;102284.50;5032216;28;20112;-63
2021/08/31 00:48:44;;;;;;;5.53;3.78;;;;;;;20.61;62.46;102288.81;5032912;28;20477;-63
2021/08/31 00:51:12;;;;;;;6.15;4.07;;;;;;;20.58;62.44;102277.59;5033114;28;20028;-62
2021/08/31 00:53:38;;;;;;;6.10;3.90;;;;;;;20.59;62.09;102282.78;5031915;28;20124;-63
2021/08/31 00:56:05;;;;;;;6.10;3.83;;;;;;;20.58;62.32;102281.06;5032719;28;20115;-62
2021/08/31 00:58:32;;;;;;;6.50;3.95;;;;;;;20.58;62.24;102280.25;5032871;28;20022;-63
2021/08/31 01:00:57;;;;;;;6.55;4.25;;;;;;;20.58;62.53;102283.72;5031259;28;20900;-63
2021/08/31 01:03:23;;;;;;;6.10;4.13;;;;;;;20.58;62.42;102289.03;5032755;28;20083;-64
2021/08/31 01:05:48;;;;;;;5.93;4.00;;;;;;;20.58;62.53;102285.53;5033519;28;20466;-62
2021/08/31 01:08:14;;;;;;;6.45;4.47;;;;;;;20.57;62.18;102287.34;5040604;28;20037;-63
2021/08/31 01:10:39;;;;;;;5.60;3.90;;;;;;;20.56;62.33;102290.94;5041004;28;20029;-63
2021/08/31 01:13:05;;;;;;;6.35;4.10;;;;;;;20.57;62.20;102292.66;5039751;28;20535;-63
2021/08/31 01:15:31;;;;;;;5.60;3.80;;;;;;;20.55;62.26;102293.69;5041018;28;20034;-63
2021/08/31 01:17:56;;;;;;;5.90;3.97;;;;;;;20.55;62.27;102297.19;5041573;28;20397;-64
2021/08/31 01:20:25;;;;;;;6.13;4.32;;;;;;;20.55;62.27;102293.69;5041534;28;20022;-63
2021/08/31 01:22:50;;;;;;;6.68;4.25;;;;;;;20.55;62.45;102296.34;5042427;28;20021;-64
2021/08/31 01:25:15;;;;;;;6.17;4.10;;;;;;;20.55;62.32;102294.53;5039197;28;20036;-64
2021/08/31 01:27:43;;;;;;;5.97;4.03;;;;;;;20.56;62.42;102298.88;5032036;28;20377;-64
2021/08/31 01:30:09;;;;;;;6.18;4.00;;;;;;;20.55;62.36;102299.81;5032955;28;20029;-63
2021/08/31 01:32:35;;;;;;;6.78;4.28;;;;;;;20.54;62.47;102292.84;5033024;28;20020;-63
2021/08/31 01:35:00;;;;;;;6.50;4.18;;;;;;;20.53;62.01;102299.09;5031523;28;20033;-62
2021/08/31 01:37:25;;;;;;;6.45;4.55;;;;;;;20.54;62.20;102294.66;5032849;28;20041;-62
2021/08/31 01:39:50;;;;;;;6.20;4.33;;;;;;;20.53;62.30;102300.91;5032312;28;20029;-63
2021/08/31 01:42:16;;;;;;;5.75;4.05;;;;;;;20.54;62.55;102302.63;5031712;28;20345;-63
2021/08/31 01:44:41;;;;;;;5.97;4.07;;;;;;;20.52;62.22;102299.19;5032350;28;20063;-62
2021/08/31 01:47:09;;;;;;;7.07;4.17;;;;;;;20.53;62.38;102307.03;5032053;28;20037;-62
2021/08/31 01:49:35;;;;;;;6.50;4.38;;;;;;;20.52;62.25;102307.16;5031628;28;20278;-62
2021/08/31 01:52:00;;;;;;;5.68;4.30;;;;;;;20.52;62.42;102310.66;5032105;28;20025;-63
2021/08/31 01:54:26;;;;;;;6.77;4.40;;;;;;;20.52;62.35;102309.78;5031988;28;20056;-62
2021/08/31 01:56:52;;;;;;;6.30;4.35;;;;;;;20.51;62.21;102314.25;5031266;28;20293;-64
2021/08/31 01:59:17;;;;;;;5.37;3.73;;;;;;;20.52;62.21;102313.31;5032170;28;20025;-63
2021/08/31 02:01:42;;;;;;;6.50;4.37;;;;;;;20.52;62.09;102312.44;5032034;28;20365;-63
2021/08/31 02:04:07;;;;;;;6.60;4.40;;;;;;;20.52;62.25;102307.16;5031186;28;20360;-62
2021/08/31 02:06:33;;;;;;;6.10;4.50;;;;;;;20.50;62.13;102306.41;5032254;28;20365;-63
2021/08/31 02:08:58;;;;;;;6.05;4.20;;;;;;;20.50;62.38;102307.25;5031372;28;20429;-63
2021/08/31 02:11:23;;;;;;;6.10;4.10;;;;;;;20.51;62.36;102313.41;5032263;28;20049;-63
2021/08/31 02:13:48;;;;;;;6.28;4.15;;;;;;;20.51;62.17;102308.13;5034347;28;20754;-63
2021/08/31 02:16:14;;;;;;;6.90;4.75;;;;;;;20.50;62.37;102312.53;5035995;28;20040;-63
2021/08/31 02:18:40;;;;;;;6.82;4.28;;;;;;;20.50;62.30;102319.66;5036506;28;20109;-63
2021/08/31 02:21:06;;;;;;;6.78;4.00;;;;;;;20.48;62.46;102320.59;5035908;28;20406;-63
2021/08/31 02:23:32;;;;;;;6.93;4.75;;;;;;;20.50;62.29;102322.31;5035459;28;20033;-63
2021/08/31 02:25:57;;;;;;;6.35;4.38;;;;;;;20.49;62.25;102324.13;5035806;28;20068;-63
2021/08/31 02:28:23;;;;;;;6.32;4.05;;;;;;;20.48;62.26;102317.94;5036096;28;20444;-64
2021/08/31 02:30:48;;;;;;;6.10;4.53;;;;;;;20.48;62.41;102317.09;5034856;28;20076;-62
2021/08/31 02:33:13;;;;;;;6.30;4.05;;;;;;;20.49;62.00;102316.16;5036175;28;20045;-62
2021/08/31 02:35:38;;;;;;;6.53;4.40;;;;;;;20.48;62.39;102320.59;5036066;28;20489;-62
2021/08/31 02:38:04;;;;;;;6.82;4.45;;;;;;;20.47;62.46;102324.22;5034889;28;20363;-62
2021/08/31 02:40:29;;;;;;;5.70;4.13;;;;;;;20.48;61.98;102327.69;5035845;28;20082;-62
2021/08/31 02:42:54;;;;;;;7.78;4.47;;;;;;;20.48;62.42;102317.09;5035389;28;20075;-63
2021/08/31 02:45:20;;;;;;;6.22;4.20;;;;;;;20.48;62.10;102322.41;5034762;28;20466;-63
2021/08/31 02:47:46;;;;;;;6.32;4.13;;;;;;;20.48;62.06;102319.75;5035332;28;20033;-62
2021/08/31 02:50:14;;;;;;;6.28;4.20;;;;;;;20.47;62.32;102321.56;5035600;28;20044;-63
2021/08/31 02:52:39;;;;;;;6.18;4.15;;;;;;;20.45;62.39;102315.50;5034440;28;20091;-62
2021/08/31 02:55:05;;;;;;;6.65;4.80;;;;;;;20.46;62.51;102319.03;5035009;28;20104;-63
2021/08/31 02:57:30;;;;;;;6.47;4.45;;;;;;;20.46;62.35;102316.38;5035217;28;20024;-63
2021/08/31 02:59:56;;;;;;;6.93;4.43;;;;;;;20.46;62.08;102321.66;5034087;28;20367;-62
2021/08/31 03:02:21;;;;;;;6.18;4.40;;;;;;;20.46;62.29;102316.38;5035238;28;20275;-63
2021/08/31 03:04:46;;;;;;;6.63;4.60;;;;;;;20.45;62.15;102323.44;5034744;28;20029;-63
2021/08/31 03:07:14;;;;;;;6.15;4.35;;;;;;;20.45;62.06;102325.25;5034311;28;20313;-63
2021/08/31 03:09:40;;;;;;;7.47;4.80;;;;;;;20.45;61.88;102326.09;5034861;28;20512;-63
2021/08/31 03:12:06;;;;;;;8.77;4.60;;;;;;;20.44;62.19;102327.06;5034490;28;20389;-63
2021/08/31 03:14:31;;;;;;;7.72;5.15;;;;;;;20.44;62.23;102324.41;5033844;28;20056;-63
2021/08/31 03:16:57;;;;;;;6.90;4.78;;;;;;;20.42;62.32;102325.47;5034528;28;20018;-63
2021/08/31 03:19:24;;;;;;;7.03;4.75;;;;;;;20.44;62.22;102327.06;5034089;28;20037;-63
2021/08/31 03:21:58;;;;;;;6.22;4.32;;;;;;;20.43;62.45;102328.00;5034587;28;20086;-62
2021/08/31 03:24:24;;;;;;;7.38;5.00;;;;;;;20.44;61.95;102326.19;5034256;28;20326;-64
2021/08/31 03:26:53;;;;;;;6.78;4.65;;;;;;;20.43;62.09;102332.47;5033443;28;20183;-62
2021/08/31 03:29:19;;;;;;;6.20;4.25;;;;;;;20.43;62.15;102329.81;5034852;28;20029;-63
2021/08/31 03:31:44;;;;;;;6.85;4.75;;;;;;;20.42;62.26;102323.66;5034236;28;20022;-63
2021/08/31 03:34:13;;;;;;;7.07;4.60;;;;;;;20.42;62.16;102328.94;5033984;28;20087;-63
2021/08/31 03:36:38;;;;;;;5.88;4.60;;;;;;;20.42;62.01;102331.59;5034539;28;20144;-63
2021/08/31 03:39:04;;;;;;;7.15;4.90;;;;;;;20.42;62.17;102330.75;5034122;28;20512;-63
2021/08/31 03:41:29;;;;;;;6.97;4.80;;;;;;;20.39;61.80;102326.50;5033507;28;20052;-63
2021/08/31 03:43:54;;;;;;;6.90;4.40;;;;;;;20.41;61.96;102329.94;5034230;28;20044;-62
2021/08/31 03:46:23;;;;;;;8.35;4.97;;;;;;;20.41;61.96;102321.09;5034503;28;20036;-63
2021/08/31 03:48:48;;;;;;;6.47;4.80;;;;;;;20.41;61.92;102324.63;5033414;28;20053;-62
2021/08/31 03:51:13;;;;;;;6.68;4.32;;;;;;;20.41;62.15;102327.28;5034386;28;20362;-63
2021/08/31 03:53:39;;;;;;;7.30;5.20;;;;;;;20.40;62.17;102330.88;5033996;28;20052;-63
2021/08/31 03:56:10;;;;;;;7.15;4.90;;;;;;;20.40;62.03;102328.22;5033077;28;20353;-63
2021/08/31 03:58:35;;;;;;;6.60;4.78;;;;;;;20.40;62.25;102330.03;5033933;28;20453;-64
2021/08/31 04:01:00;;;;;;;6.38;4.53;;;;;;;20.41;61.79;102329.06;5033837;28;20026;-63
2021/08/31 04:03:26;;;;;;;7.43;4.78;;;;;;;20.40;61.91;102333.50;5033212;28;20496;-63
2021/08/31 04:05:51;;;;;;;6.97;5.05;;;;;;;20.41;61.87;102335.22;5033539;28;20112;-63
2021/08/31 04:08:16;;;;;;;6.57;5.03;;;;;;;20.39;62.11;102331.81;5034211;28;20068;-62
2021/08/31 04:10:42;;;;;;;7.88;5.15;;;;;;;20.39;62.00;102338.91;5033254;28;20269;-63
2021/08/31 04:13:10;;;;;;;6.13;4.63;;;;;;;20.39;62.03;102338.91;5033584;28;20037;-62
2021/08/31 04:15:35;;;;;;;6.43;4.90;;;;;;;20.39;61.77;102337.09;5033397;28;20117;-64
2021/08/31 04:18:00;;;;;;;8.73;5.10;;;;;;;20.39;61.86;102346.84;5034590;28;20466;-64
2021/08/31 04:20:29;;;;;;;6.20;4.70;;;;;;;20.35;61.94;102340.09;5035001;28;20263;-64
2021/08/31 04:22:54;;;;;;;7.47;5.03;;;;;;;20.38;61.87;102346.00;5034023;28;20879;-63
2021/08/31 04:25:20;;;;;;;6.43;4.82;;;;;;;20.38;62.00;102350.47;5034382;28;20112;-63
2021/08/31 04:27:45;;;;;;;6.95;4.93;;;;;;;20.37;61.85;102354.91;5033706;28;20378;-65
2021/08/31 04:30:19;;;;;;;7.70;5.05;;;;;;;20.38;61.85;102356.59;5032477;28;20022;-64
2021/08/31 04:32:45;;;;;;;7.13;5.28;;;;;;;20.37;61.74;102352.25;5033253;28;20079;-63
2021/08/31 04:35:11;;;;;;;6.97;4.57;;;;;;;20.38;61.76;102356.59;5032437;28;20049;-63
2021/08/31 04:37:36;;;;;;;6.40;4.90;;;;;;;20.37;61.67;102367.31;5032081;28;20053;-63
2021/08/31 04:40:02;;;;;;;6.07;4.53;;;;;;;20.36;61.73;102365.59;5032724;28;20029;-63
2021/08/31 04:42:27;;;;;;;6.07;4.38;;;;;;;20.38;61.83;102366.34;5033170;28;20328;-63
2021/08/31 04:44:52;;;;;;;6.10;4.32;;;;;;;20.38;61.81;102374.31;5032097;28;20033;-62
2021/08/31 04:47:18;;;;;;;7.07;4.60;;;;;;;20.34;61.69;102363.03;5032943;28;20067;-63
2021/08/31 04:49:43;;;;;;;7.38;4.82;;;;;;;20.37;61.60;102372.59;5033005;28;20029;-62
2021/08/31 04:52:09;;;;;;;7.32;4.85;;;;;;;20.37;61.68;102375.25;5031443;28;20437;-64
2021/08/31 04:54:40;;;;;;;7.13;5.07;;;;;;;20.36;61.56;102382.34;5032823;28;20026;-64
2021/08/31 04:57:08;;;;;;;6.70;4.97;;;;;;;20.36;61.78;102382.34;5032766;28;20017;-63
2021/08/31 04:59:33;;;;;;;7.45;5.18;;;;;;;20.36;61.81;102390.28;5031977;28;20028;-64
2021/08/31 05:01:59;;;;;;;6.37;5.00;;;;;;;20.35;61.59;102395.69;5032403;28;20025;-63
2021/08/31 05:04:28;;;;;;;6.32;4.72;;;;;;;20.35;61.70;102393.03;5032610;28;20318;-62
2021/08/31 05:06:54;;;;;;;6.40;4.70;;;;;;;20.36;61.82;102400.00;5031793;28;20461;-63
2021/08/31 05:09:19;;;;;;;7.10;5.18;;;;;;;20.35;61.68;102400.97;5032407;28;20037;-62
2021/08/31 05:11:44;;;;;;;7.10;4.93;;;;;;;20.35;61.63;102406.28;5032504;28;20030;-63
2021/08/31 05:14:10;;;;;;;8.20;5.30;;;;;;;20.35;61.87;102406.28;5031509;28;20017;-63
2021/08/31 05:16:35;;;;;;;7.23;5.20;;;;;;;20.35;61.60;102408.94;5032534;28;20710;-63
2021/08/31 05:19:00;;;;;;;7.20;5.30;;;;;;;20.35;61.65;102407.13;5031453;28;20266;-64
2021/08/31 05:21:26;;;;;;;7.15;4.97;;;;;;;20.33;61.80;102411.69;5032242;28;20055;-64
2021/08/31 05:23:51;;;;;;;7.03;5.22;;;;;;;20.33;61.84;102416.09;5032291;28;20037;-64
2021/08/31 05:26:16;;;;;;;6.65;4.90;;;;;;;20.34;61.62;102412.50;5031862;28;20045;-64
2021/08/31 05:28:41;;;;;;;7.20;4.67;;;;;;;20.34;61.52;102416.00;5032259;28;20029;-63
2021/08/31 05:31:07;;;;;;;6.03;4.63;;;;;;;20.34;61.33;102421.28;5031922;28;20271;-63
2021/08/31 05:33:32;;;;;;;6.50;4.67;;;;;;;20.34;61.83;102421.28;5031402;28;20263;-63
2021/08/31 05:35:57;;;;;;;7.40;5.17;;;;;;;20.34;61.63;102423.94;5031793;28;20270;-63
2021/08/31 05:38:22;;;;;;;6.35;5.13;;;;;;;20.34;61.61;102423.94;5032116;28;20741;-63
2021/08/31 05:40:48;;;;;;;6.15;4.75;;;;;;;20.33;61.61;102421.41;5031345;28;20488;-64
2021/08/31 05:43:13;;;;;;;6.70;5.22;;;;;;;20.33;61.68;102422.25;5032144;28;20025;-64
2021/08/31 05:45:39;;;;;;;6.50;4.73;;;;;;;20.33;61.62;102424.91;5032186;28;20029;-63
2021/08/31 05:48:04;;;;;;;9.15;5.13;;;;;;;20.30;61.50;102417.16;5030835;28;20333;-63
2021/08/31 05:50:29;;;;;;;6.90;4.65;;;;;;;20.34;61.70;102423.09;5031958;28;20358;-63
2021/08/31 05:52:54;;;;;;;6.40;4.90;;;;;;;20.33;61.59;102422.25;5031638;28;20140;-64
2021/08/31 05:55:20;;;;;;;7.07;4.85;;;;;;;20.32;61.54;102423.19;5031438;28;20113;-63
2021/08/31 05:57:45;;;;;;;7.37;5.00;;;;;;;20.33;61.46;102426.69;5031930;28;20029;-63
2021/08/31 06:00:11;;;;;;;7.60;4.60;;;;;;;20.33;61.42;102429.34;5031540;28;20273;-63
2021/08/31 06:02:38;;;;;;;6.63;4.68;;;;;;;20.33;61.57;102429.34;5031356;28;20271;-64
2021/08/31 06:05:05;;;;;;;7.60;4.40;;;;;;;20.24;61.69;102418.41;5031716;28;20053;-61
2021/08/31 06:07:34;;;;;;;7.30;5.40;;;;;;;20.29;61.63;102437.47;5031647;28;20029;-60
2021/08/31 06:10:02;;;;;;;7.30;5.47;;;;;;;20.26;61.60;102421.78;5030846;28;20032;-63
2021/08/31 06:12:27;;;;;;;6.78;5.30;;;;;;;20.23;61.68;102440.53;5031705;28;20049;-61
2021/08/31 06:14:52;;;;;;;9.15;5.55;;;;;;;20.22;61.65;102438.84;5031664;28;20063;-61
2021/08/31 06:17:19;;;;;;;9.63;5.50;;;;;;;20.22;61.63;102444.13;5031328;28;20022;-61
2021/08/31 06:19:45;;;;;;;6.88;4.82;;;;;;;20.23;61.97;102437.03;5031758;28;20121;-61
2021/08/31 06:22:13;;;;;;;7.68;5.18;;;;;;;20.25;61.94;102435.13;5030826;28;20036;-63
2021/08/31 06:24:38;;;;;;;8.30;4.82;;;;;;;20.27;62.24;102447.31;5031516;28;20415;-62
2021/08/31 06:27:04;;;;;;;6.77;4.90;;;;;;;20.30;62.15;102454.22;5031724;28;20047;-62
2021/08/31 06:29:30;;;;;;;7.00;4.90;;;;;;;20.32;62.27;102456.78;5031252;28;20656;-61
2021/08/31 06:31:55;;;;;;;7.80;4.93;;;;;;;20.33;62.34;102453.16;5031550;28;20014;-63
2021/08/31 06:34:21;;;;;;;7.13;4.75;;;;;;;20.35;62.31;102457.44;5031904;28;20112;-62
2021/08/31 06:36:47;;;;;;;7.00;4.97;;;;;;;20.37;62.37;102455.50;5031117;28;20462;-63
2021/08/31 06:39:13;;;;;;;7.03;4.80;;;;;;;20.36;62.48;102448.53;5031980;28;20025;-62
2021/08/31 06:41:38;;;;;;;7.18;4.63;;;;;;;20.38;62.28;102448.44;5031978;28;20078;-62
2021/08/31 06:44:06;;;;;;;7.03;4.60;;;;;;;20.38;62.39;102448.44;5030768;28;20049;-61
2021/08/31 06:46:32;;;;;;;9.27;5.03;;;;;;;20.39;62.19;102447.47;5031648;28;20037;-61
2021/08/31 06:48:57;;;;;;;9.18;4.82;;;;;;;20.39;62.44;102450.97;5031446;28;20385;-62
2021/08/31 06:51:23;;;;;;;6.30;4.50;;;;;;;20.40;62.31;102462.41;5031173;28;20442;-63
2021/08/31 06:53:48;;;;;;;8.75;4.97;;;;;;;20.40;62.25;102462.41;5031317;28;20042;-62
2021/08/31 06:56:16;;;;;;;6.15;4.28;;;;;;;20.39;62.48;102460.72;5031846;28;20022;-61
2021/08/31 06:58:41;;;;;;;7.55;4.72;;;;;;;20.40;62.32;102459.78;5031324;28;20025;-62
2021/08/31 07:01:09;;;;;;;7.72;4.88;;;;;;;20.40;62.45;102467.72;5035156;28;20393;-63
2021/08/31 07:03:35;;;;;;;7.70;4.32;;;;;;;20.39;62.46;102461.56;5035094;28;20400;-63
2021/08/31 07:06:00;;;;;;;8.45;4.32;;;;;;;20.41;62.43;102464.09;5034329;28;20091;-63
2021/08/31 07:08:25;;;;;;;6.55;4.32;;;;;;;20.42;62.52;102464.00;5035100;28;20025;-63
2021/08/31 07:10:51;;;;;;;8.27;4.72;;;;;;;20.36;62.56;102452.97;5034948;28;20030;-63
2021/08/31 07:13:16;;;;;;;7.47;4.40;;;;;;;20.43;62.76;102473.66;5034520;28;20044;-63
2021/08/31 07:15:44;;;;;;;6.97;4.38;;;;;;;20.45;62.51;102471.75;5035218;28;20028;-61
2021/08/31 07:18:09;;;;;;;7.93;4.72;;;;;;;20.46;62.62;102472.63;5034879;28;20036;-66
2021/08/31 07:20:35;;;;;;;9.15;4.20;;;;;;;20.47;62.61;102482.22;5034660;28;20108;-63
2021/08/31 07:23:01;;;;;;;8.57;4.43;;;;;;;20.47;62.42;102482.22;5034781;28;20068;-62
2021/08/31 07:25:26;;;;;;;8.33;4.03;;;;;;;20.47;62.41;102485.75;5035637;28;20489;-62
2021/08/31 07:27:51;;;;;;;6.22;3.78;;;;;;;20.48;62.59;102481.31;5035059;28;20290;-64
2021/08/31 07:30:18;;;;;;;6.45;4.15;;;;;;;20.50;62.51;102482.03;5034958;28;20464;-64
2021/08/31 07:32:43;;;;;;;8.35;3.85;;;;;;;20.50;62.50;102482.03;5033908;28;20026;-63
2021/08/31 07:35:10;;;;;;;6.05;4.18;;;;;;;20.52;62.43;102490.75;5034335;28;20469;-65
2021/08/31 07:37:36;;;;;;;8.77;4.25;;;;;;;20.54;62.41;102493.31;5034485;28;20377;-63
2021/08/31 07:40:02;;;;;;;6.70;4.13;;;;;;;20.54;62.40;102495.94;5033860;28;20028;-65
2021/08/31 07:42:28;;;;;;;6.57;4.07;;;;;;;20.54;62.41;102488.84;5034427;28;20032;-64
2021/08/31 07:44:53;;;;;;;6.72;4.05;;;;;;;20.57;62.19;102488.66;5034074;28;20021;-61
2021/08/31 07:47:18;;;;;;;7.95;4.07;;;;;;;20.55;62.25;102497.63;5033380;28;20089;-61
2021/08/31 07:49:44;;;;;;;6.43;4.07;;;;;;;20.55;62.33;102501.13;5034324;28;20365;-61
2021/08/31 07:52:09;;;;;;;6.95;4.13;;;;;;;20.56;62.41;102500.19;5033843;28;20022;-62
2021/08/31 07:54:35;;;;;;;6.60;3.47;;;;;;;20.57;62.38;102495.72;5033973;28;20025;-62
2021/08/31 07:57:00;;;;;;;10.07;3.70;;;;;;;20.58;62.27;102495.63;5034350;28;20021;-63
2021/08/31 07:59:28;;;;;;;8.68;3.78;;;;;;;20.58;62.42;102494.78;5034567;28;20064;-62
2021/08/31 08:01:53;;;;;;;5.60;3.42;;;;;;;20.59;62.31;102499.13;5033197;28;20393;-63
2021/08/31 08:04:21;;;;;;;8.52;3.58;;;;;;;20.56;62.32;102491.41;5034127;28;20052;-62
2021/08/31 08:06:46;;;;;;;6.70;3.47;;;;;;;20.58;62.17;102495.63;5034336;28;20043;-63
2021/08/31 08:09:12;;;;;;;6.47;4.10;;;;;;;20.60;62.41;102493.75;5033196;28;20108;-62
2021/08/31 08:11:38;;;;;;;6.28;3.50;;;;;;;20.61;62.18;102498.06;5034797;28;20307;-62
2021/08/31 08:14:04;;;;;;;6.25;3.92;;;;;;;20.62;62.34;102504.22;5034439;28;20457;-66
2021/08/31 08:16:29;;;;;;;6.15;3.35;;;;;;;20.63;62.45;102506.78;5032869;28;20045;-62
2021/08/31 08:18:54;;;;;;;5.10;3.33;;;;;;;20.63;62.28;102512.09;5033896;28;20119;-63
2021/08/31 08:21:20;;;;;;;5.57;3.40;;;;;;;20.65;62.26;102504.91;5034260;28;20037;-62
2021/08/31 08:23:45;;;;;;;6.20;3.40;;;;;;;20.65;62.24;102512.00;5034390;28;20470;-63
2021/08/31 08:26:11;;;;;;;5.88;3.47;;;;;;;20.65;62.30;102510.19;5033556;28;20064;-62
2021/08/31 08:28:37;;;;;;;8.40;3.40;;;;;;;20.67;62.25;102507.47;5033640;28;20382;-63
2021/08/31 08:31:04;;;;;;;5.82;3.67;;;;;;;20.68;62.28;102503.00;5032390;28;20532;-63
2021/08/31 08:33:32;;;;;;;6.70;3.78;;;;;;;20.70;62.13;102498.47;5033667;28;20440;-63
2021/08/31 08:36:01;;;;;;;6.80;3.38;;;;;;;20.72;61.98;102496.56;5032771;28;20033;-65
2021/08/31 08:38:29;;;;;;;5.45;3.08;;;;;;;20.71;61.73;102500.16;5033910;28;20025;-64
2021/08/31 08:40:59;;;;;;;5.80;3.30;;;;;;;20.75;61.67;102517.56;5033366;28;20022;-64
2021/08/31 08:43:24;;;;;;;7.00;3.50;;;;;;;20.75;61.84;102517.56;5032594;28;20445;-61
2021/08/31 08:45:50;;;;;;;6.63;3.47;;;;;;;20.75;61.62;102509.59;5032987;28;20053;-61
2021/08/31 08:48:20;;;;;;;5.60;3.20;;;;;;;20.78;61.66;102517.34;5033668;28;20374;-62
2021/08/31 08:50:47;;;;;;;7.38;3.72;;;;;;;20.77;61.75;102524.44;5032482;28;20117;-62
2021/08/31 08:53:12;;;;;;;7.07;3.50;;;;;;;20.76;61.77;102520.09;5032989;28;20037;-67
2021/08/31 08:55:37;;;;;;;6.13;3.70;;;;;;;20.79;61.86;102527.84;5033337;28;20049;-62
2021/08/31 08:58:03;;;;;;;5.30;3.35;;;;;;;20.79;61.81;102525.19;5032178;28;20025;-61
2021/08/31 09:00:52;;;;;;;7.18;3.58;;;;;;;20.81;61.91;102527.75;5032890;28;20034;-61
2021/08/31 09:03:19;;;;;;;7.25;3.50;;;;;;;20.82;61.96;102532.06;5033006;28;20474;-62
2021/08/31 09:05:45;;;;;;;5.65;3.47;;;;;;;20.82;61.96;102530.28;5032017;28;20053;-62
2021/08/31 09:08:13;;;;;;;6.20;3.00;;;;;;;20.83;62.00;102531.13;5032330;28;20076;-62
2021/08/31 09:10:42;;;;;;;6.40;3.58;;;;;;;20.84;62.10;102532.84;5032483;28;20270;-62
2021/08/31 09:13:09;;;;;;;6.25;3.40;;;;;;;20.83;62.40;102534.63;5031825;28;20544;-63
2021/08/31 09:15:38;;;;;;;6.93;3.40;;;;;;;20.83;62.31;102523.19;5032636;28;20033;-61
2021/08/31 09:18:03;;;;;;;6.07;3.60;;;;;;;20.86;62.20;102528.28;5031682;28;20037;-62
2021/08/31 09:20:32;;;;;;;8.80;3.85;;;;;;;20.86;62.06;102536.22;5032600;28;20083;-62
2021/08/31 09:22:58;;;;;;;5.30;3.17;;;;;;;20.87;62.33;102523.81;5031545;28;20385;-62
2021/08/31 09:25:35;;;;;;;6.65;3.50;;;;;;;20.87;62.22;102524.69;5031542;28;20030;-62
2021/08/31 09:28:00;;;;;;;6.22;3.38;;;;;;;20.88;62.38;102526.38;5031668;28;20366;-62
2021/08/31 09:30:29;;;;;;;10.18;3.65;;;;;;;20.88;62.20;102531.66;5032274;28;20029;-63
2021/08/31 09:33:12;;;;;;;7.05;3.42;;;;;;;20.89;62.42;102524.59;5030982;28;20013;-62
2021/08/31 09:35:45;;;;;;;8.15;2.95;;;;;;;20.89;62.50;102527.25;5032068;28;20038;-62
2021/08/31 09:38:12;;;;;;;6.43;3.50;;;;;;;20.90;62.11;102528.91;5031803;28;20025;-62
2021/08/31 09:40:39;;;;;;;6.18;3.20;;;;;;;20.92;62.20;102521.72;5031509;28;20029;-63
2021/08/31 09:43:09;;;;;;;5.55;3.40;;;;;;;20.92;62.39;102525.22;5031578;28;20037;-62
2021/08/31 09:45:40;;;;;;;8.23;3.38;;;;;;;20.93;62.37;102523.41;5031985;28;20329;-63
2021/08/31 09:48:08;;;;;;;7.28;3.63;;;;;;;20.94;62.39;102522.47;5030912;28;20034;-62
2021/08/31 09:50:39;;;;;;;7.28;3.80;;;;;;;20.93;62.42;102526.91;5031601;28;20037;-63
2021/08/31 09:53:12;;;;;;;7.95;3.72;;;;;;;20.94;62.51;102525.13;5031466;28;20043;-62
2021/08/31 09:55:40;;;;;;;9.50;3.50;;;;;;;20.94;62.47;102525.97;5031943;28;20026;-61
2021/08/31 09:58:25;;;;;;;5.40;3.20;;;;;;;20.95;62.60;102532.09;5031349;28;20489;-63
2021/08/31 10:00:53;;;;;;;6.40;3.35;;;;;;;20.96;62.66;102526.69;5030866;28;20362;-63
2021/08/31 10:03:19;;;;;;;6.40;3.08;;;;;;;20.97;62.61;102522.28;5032106;28;20021;-62
2021/08/31 10:05:47;;;;;;;8.65;3.72;;;;;;;20.98;62.66;102521.28;5031964;28;20108;-62
2021/08/31 10:08:14;;;;;;;6.57;3.65;;;;;;;20.95;62.67;102527.66;5031132;28;20029;-64
2021/08/31 10:10:40;;;;;;;6.35;3.38;;;;;;;20.98;62.78;102535.41;5031819;28;20110;-63
2021/08/31 10:13:14;;;;;;;5.93;3.55;;;;;;;21.00;63.00;102532.66;5031571;28;20361;-64
2021/08/31 10:15:46;;;;;;;5.30;3.03;;;;;;;21.01;62.84;102539.66;5031180;28;20109;-63
2021/08/31 10:18:13;;;;;;;7.35;3.28;;;;;;;21.03;62.96;102532.47;5032041;28;20029;-61
2021/08/31 10:20:47;;;;;;;6.15;3.20;;;;;;;21.04;62.90;102528.00;5031916;28;20021;-62
2021/08/31 10:23:15;;;;;;;6.28;3.33;;;;;;;21.02;63.03;102531.59;5031218;28;20022;-61
2021/08/31 10:25:40;;;;;;;6.38;3.53;;;;;;;21.02;62.89;102531.59;5031453;28;20072;-63
2021/08/31 10:28:28;;;;;;;6.32;3.28;;;;;;;21.04;62.78;102533.31;5031607;28;20025;-63
2021/08/31 10:30:56;;;;;;;5.95;3.50;;;;;;;21.03;63.19;102537.75;5031483;28;20045;-63
2021/08/31 10:33:39;;;;;;;6.22;3.33;;;;;;;21.03;62.85;102537.75;5031747;28;20063;-63
2021/08/31 10:36:09;;;;;;;7.47;3.33;;;;;;;21.01;62.98;102540.53;5034737;28;20075;-72
2021/08/31 10:38:46;;;;;;;6.72;3.53;;;;;;;21.02;63.01;102531.59;5036052;28;20030;-63
2021/08/31 10:41:43;;;;;;;5.78;3.42;;;;;;;21.04;62.90;102538.59;5035728;28;20029;-63
2021/08/31 10:44:11;;;;;;;8.25;3.28;;;;;;;21.04;62.94;102538.59;5033537;28;20120;-63
2021/08/31 10:46:56;;;;;;;5.43;3.20;;;;;;;21.03;62.82;102537.75;5035635;28;20112;-64
2021/08/31 10:49:24;;;;;;;7.93;3.20;;;;;;;21.04;62.72;102535.94;5025118;28;20092;-63
2021/08/31 10:52:05;;;;;;;9.98;3.70;;;;;;;21.04;62.75;102542.09;5034704;28;20029;-62
2021/08/31 10:54:47;;;;;;;6.82;3.17;;;;;;;21.03;62.70;102540.41;5035533;28;20049;-63
2021/08/31 10:57:41;;;;;;;7.57;3.25;;;;;;;21.01;62.78;102543.16;5035096;28;20026;-64
2021/08/31 11:00:15;;;;;;;6.55;3.38;;;;;;;21.05;62.62;102548.25;5035313;28;20108;-64
2021/08/31 11:02:46;;;;;;;7.70;3.30;;;;;;;21.04;62.57;102550.03;5035563;28;20483;-64
2021/08/31 11:05:17;;;;;;;5.50;3.05;;;;;;;21.04;62.56;102551.84;5034832;28;20108;-65
2021/08/31 11:07:43;;;;;;;6.65;2.97;;;;;;;21.03;62.69;102548.38;5035764;28;20033;-63
2021/08/31 11:10:09;;;;;;;5.60;3.25;;;;;;;21.06;62.65;102547.28;5035763;28;20093;-63
2021/08/31 11:12:34;;;;;;;6.45;3.00;;;;;;;21.06;62.55;102548.16;5036407;28;20026;-62
2021/08/31 11:15:00;;;;;;;4.90;2.60;;;;;;;21.08;62.52;102545.38;5035011;28;20021;-64
2021/08/31 11:17:31;;;;;;;5.95;3.17;;;;;;;21.10;62.59;102543.50;5035361;28;20075;-62
2021/08/31 11:20:21;;;;;;;4.88;3.10;;;;;;;21.11;62.06;102550.47;5033868;28;20472;-64
2021/08/31 11:22:52;;;;;;;4.82;2.90;;;;;;;21.11;62.37;102551.34;5036266;28;20041;-63